createdAt,value
2022-09-12T00:02:13.857Z,67.15
2022-09-12T00:05:16.290Z,67.29
2022-09-12T00:08:18.477Z,67.27
2022-09-12T00:11:21.344Z,67.17
2022-09-12T00:14:23.465Z,67.13
2022-09-12T00:17:25.891Z,67.13
2022-09-12T00:20:27.858Z,67.13
2022-09-12T00:23:30.455Z,67.13
2022-09-12T00:26:33.469Z,67.28
2022-09-12T00:29:35.921Z,67.14
2022-09-12T00:32:38.044Z,67.14
2022-09-12T00:35:44.303Z,67.38
2022-09-12T00:38:46.631Z,67.80
2022-09-12T00:41:49.127Z,67.54
2022-09-12T00:44:52.350Z,68.01
2022-09-12T00:47:55.282Z,68.10
2022-09-12T00:50:58.044Z,68.26
2022-09-12T00:54:02.246Z,68.48
2022-09-12T00:57:06.709Z,68.64
2022-09-12T01:00:15.094Z,68.52
2022-09-12T01:03:19.251Z,68.52
2022-09-12T01:06:23.885Z,68.58
2022-09-12T01:09:26.429Z,68.74
2022-09-12T01:12:29.559Z,68.58
2022-09-12T01:15:31.653Z,68.46
2022-09-12T01:18:53.781Z,68.25
2022-09-12T01:22:14.615Z,68.48
2022-09-12T01:25:25.953Z,68.47
2022-09-12T01:28:28.024Z,68.37
2022-09-12T01:31:49.223Z,68.24
2022-09-12T01:34:58.119Z,68.26
2022-09-12T01:38:11.916Z,68.50
2022-09-12T01:41:32.704Z,68.65
2022-09-12T01:44:41.192Z,68.97
2022-09-12T01:47:46.806Z,68.81
2022-09-12T01:50:56.518Z,68.90
2022-09-12T01:54:06.954Z,68.83
2022-09-12T01:57:12.972Z,68.72
2022-09-12T02:00:15.156Z,68.77
2022-09-12T02:03:20.542Z,68.63
2022-09-12T02:06:26.193Z,68.55
2022-09-12T02:09:33.745Z,68.48
2022-09-12T02:12:48.773Z,68.56
2022-09-12T02:15:56.766Z,68.53
2022-09-12T02:19:02.318Z,68.61
2022-09-12T02:22:04.976Z,68.75
2022-09-12T02:25:08.037Z,68.64
2022-09-12T02:28:24.259Z,68.66
2022-09-12T02:31:29.031Z,68.70
2022-09-12T02:34:49.745Z,68.69
2022-09-12T02:37:57.629Z,68.89
2022-09-12T02:40:59.955Z,69.10
2022-09-12T02:44:02.119Z,69.40
2022-09-12T02:47:07.549Z,69.57
2022-09-12T02:50:10.167Z,69.79
2022-09-12T02:53:12.535Z,70.05
2022-09-12T02:56:18.361Z,70.06
2022-09-12T02:59:21.907Z,70.08
2022-09-12T03:02:30.447Z,70.08
2022-09-12T03:05:34.947Z,70.17
2022-09-12T03:08:40.392Z,70.32
2022-09-12T03:11:54.823Z,70.48
2022-09-12T03:15:02.787Z,70.59
2022-09-12T03:18:06.298Z,70.70
2022-09-12T03:21:26.920Z,70.63
2022-09-12T03:24:35.343Z,70.76
2022-09-12T03:27:41.081Z,70.68
2022-09-12T03:30:45.191Z,70.84
2022-09-12T03:33:50.109Z,70.75
2022-09-12T03:36:57.331Z,70.73
2022-09-12T03:39:59.307Z,70.30
2022-09-12T03:43:01.861Z,70.28
2022-09-12T03:46:04.033Z,70.05
2022-09-12T03:49:06.374Z,70.09
2022-09-12T03:52:08.337Z,70.03
2022-09-12T03:55:10.984Z,69.91
2022-09-12T03:58:12.986Z,69.94
2022-09-12T04:01:19.553Z,69.87
2022-09-12T04:04:21.855Z,69.90
2022-09-12T04:07:24.042Z,69.87
2022-09-12T04:10:26.449Z,69.93
2022-09-12T04:13:28.459Z,70.00
2022-09-12T04:16:30.980Z,69.96
2022-09-12T04:19:33.119Z,69.96
2022-09-12T04:22:35.523Z,69.81
2022-09-12T04:25:37.525Z,69.75
2022-09-12T04:28:42.900Z,69.66
2022-09-12T04:31:44.964Z,69.51
2022-09-12T04:34:47.286Z,69.46
2022-09-12T04:37:49.294Z,69.41
2022-09-12T04:40:51.592Z,69.36
2022-09-12T04:43:54.886Z,69.22
2022-09-12T04:46:57.304Z,69.25
2022-09-12T04:49:59.283Z,69.13
2022-09-12T04:53:01.687Z,69.20
2022-09-12T04:56:04.775Z,68.85
2022-09-12T04:59:08.646Z,68.71
2022-09-12T05:02:10.677Z,68.61
2022-09-12T05:05:13.026Z,68.52
2022-09-12T05:08:15.470Z,68.46
2022-09-12T05:11:25.403Z,68.24
2022-09-12T05:14:32.470Z,68.30
2022-09-12T05:17:35.887Z,68.43
2022-09-12T05:20:38.019Z,68.23
2022-09-12T05:23:40.620Z,68.16
2022-09-12T05:26:42.688Z,67.88
2022-09-12T05:29:47.359Z,67.96
2022-09-12T05:32:49.749Z,67.71
2022-09-12T05:35:52.822Z,67.14
2022-09-12T05:38:54.844Z,66.66
2022-09-12T05:41:57.123Z,66.48
2022-09-12T05:44:59.158Z,66.27
2022-09-12T05:48:02.740Z,66.19
2022-09-12T05:54:14.343Z,65.74
2022-09-12T05:57:16.331Z,65.44
2022-09-12T06:00:20.666Z,65.27
2022-09-12T06:03:22.953Z,64.88
2022-09-12T06:06:25.190Z,64.76
2022-09-12T06:09:28.091Z,64.70
2022-09-12T06:12:30.306Z,64.53
2022-09-12T06:15:33.064Z,64.51
2022-09-12T06:18:35.806Z,64.18
2022-09-12T06:21:39.380Z,63.61
2022-09-12T06:24:41.453Z,63.23
2022-09-12T06:27:43.930Z,62.98
2022-09-12T06:30:46.019Z,62.56
2022-09-12T06:33:49.568Z,62.11
2022-09-12T06:36:51.835Z,61.69
2022-09-12T06:39:54.291Z,61.39
2022-09-12T06:42:56.322Z,61.01
2022-09-12T06:46:05.825Z,60.62
2022-09-12T06:49:08.184Z,59.87
2022-09-12T06:52:10.452Z,59.50
2022-09-12T06:55:16.218Z,58.99
2022-09-12T06:58:21.216Z,58.39
2022-09-12T07:03:15.633Z,54.87
2022-09-12T07:06:19.620Z,54.87
2022-09-12T07:09:21.704Z,55.93
2022-09-12T07:12:24.053Z,55.26
2022-09-12T07:15:26.871Z,54.77
2022-09-12T07:18:29.892Z,54.13
2022-09-12T07:21:34.057Z,52.75
2022-09-12T07:24:37.491Z,52.02
2022-09-12T07:27:39.689Z,51.00
2022-09-12T07:30:41.953Z,50.16
2022-09-12T07:33:44.054Z,48.30
2022-09-12T07:36:46.394Z,47.78
2022-09-12T07:39:48.471Z,46.83
2022-09-12T07:42:50.814Z,45.06
2022-09-12T07:45:56.541Z,44.34
2022-09-12T07:48:59.923Z,43.69
2022-09-12T07:52:02.067Z,41.67
2022-09-12T07:55:04.489Z,40.28
2022-09-12T07:58:06.496Z,40.35
2022-09-12T08:01:10.528Z,39.53
2022-09-12T08:04:12.843Z,38.77
2022-09-12T08:07:14.982Z,38.03
2022-09-12T08:10:17.328Z,37.72
2022-09-12T08:13:19.312Z,37.25
2022-09-12T08:16:22.094Z,36.50
2022-09-12T08:19:24.105Z,35.51
2022-09-12T08:22:26.443Z,34.74
2022-09-12T08:25:28.717Z,34.65
2022-09-12T08:28:31.761Z,33.54
2022-09-12T08:31:37.096Z,33.35
2022-09-12T08:34:39.567Z,33.38
2022-09-12T08:37:41.602Z,33.13
2022-09-12T08:40:51.069Z,33.83
2022-09-12T08:43:57.650Z,33.06
2022-09-12T08:47:08.763Z,32.58
2022-09-12T08:50:11.640Z,32.73
2022-09-12T08:53:17.068Z,31.95
2022-09-12T08:56:19.325Z,32.42
2022-09-12T08:59:21.614Z,31.71
2022-09-12T09:02:26.885Z,31.12
2022-09-12T09:05:48.030Z,30.51
2022-09-12T09:09:03.153Z,30.07
2022-09-12T09:12:13.289Z,30.15
2022-09-12T09:15:25.020Z,29.81
2022-09-12T09:18:30.196Z,29.73
2022-09-12T09:21:35.094Z,28.77
2022-09-12T09:25:00.463Z,28.61
2022-09-12T09:28:07.064Z,28.72
2022-09-12T09:31:14.378Z,27.84
2022-09-12T09:34:21.726Z,27.13
2022-09-12T09:37:38.893Z,27.56
2022-09-12T09:41:03.672Z,27.26
2022-09-12T09:47:12.977Z,25.36
2022-09-12T09:50:17.020Z,25.03
2022-09-12T09:53:35.014Z,25.27
2022-09-12T09:56:40.442Z,25.29
2022-09-12T09:59:42.458Z,26.21
2022-09-12T10:02:58.894Z,27.49
2022-09-12T10:06:21.519Z,27.00
2022-09-12T10:09:25.775Z,26.35
2022-09-12T10:12:28.656Z,27.52
2022-09-12T10:15:30.821Z,27.15
2022-09-12T10:18:41.944Z,26.98
2022-09-12T10:22:03.846Z,27.68
2022-09-12T10:25:11.239Z,29.34
2022-09-12T10:28:21.713Z,30.27
2022-09-12T10:31:39.061Z,31.20
2022-09-12T10:34:45.092Z,32.38
2022-09-12T10:37:52.353Z,33.17
2022-09-12T10:41:03.633Z,33.80
2022-09-12T10:44:07.853Z,34.34
2022-09-12T10:47:20.520Z,34.77
2022-09-12T10:50:35.719Z,35.07
2022-09-12T10:53:43.802Z,35.15
2022-09-12T10:56:52.499Z,35.59
2022-09-12T11:00:10.984Z,35.79
2022-09-12T11:03:22.263Z,35.69
2022-09-12T11:06:32.369Z,35.34
2022-09-12T11:09:40.591Z,34.86
2022-09-12T11:12:57.432Z,34.70
2022-09-12T11:15:59.824Z,34.95
2022-09-12T11:19:20.851Z,35.16
2022-09-12T11:22:35.305Z,35.15
2022-09-12T11:25:51.572Z,35.34
2022-09-12T11:29:00.171Z,35.70
2022-09-12T11:32:02.148Z,36.00
2022-09-12T11:35:24.464Z,36.16
2022-09-12T11:38:26.417Z,35.88
2022-09-12T11:41:37.114Z,34.77
2022-09-12T11:44:42.442Z,33.78
2022-09-12T11:47:46.785Z,33.56
2022-09-12T11:50:48.908Z,33.67
2022-09-12T11:54:04.260Z,33.94
2022-09-12T11:57:18.424Z,34.42
2022-09-12T12:00:34.120Z,34.98
2022-09-12T12:03:41.866Z,35.16
2022-09-12T12:06:57.819Z,36.44
2022-09-12T12:10:00.415Z,36.98
2022-09-12T12:13:13.267Z,37.57
2022-09-12T12:16:36.694Z,38.13
2022-09-12T12:19:38.819Z,38.56
2022-09-12T12:22:50.873Z,38.88
2022-09-12T12:25:54.407Z,38.57
2022-09-12T12:28:58.120Z,38.67
2022-09-12T12:32:03.513Z,38.37
2022-09-12T12:35:37.492Z,38.44
2022-09-12T12:38:41.159Z,38.40
2022-09-12T12:41:44.064Z,37.91
2022-09-12T12:44:47.258Z,37.51
2022-09-12T12:47:54.320Z,37.23
2022-09-12T12:51:15.446Z,37.02
2022-09-12T12:54:28.427Z,37.08
2022-09-12T12:57:39.436Z,37.10
2022-09-12T13:00:41.892Z,36.41
2022-09-12T13:03:45.558Z,35.86
2022-09-12T13:06:57.091Z,35.62
2022-09-12T13:10:00.156Z,35.80
2022-09-12T13:13:05.262Z,36.23
2022-09-12T13:16:10.036Z,36.58
2022-09-12T13:19:19.278Z,36.68
2022-09-12T13:22:22.538Z,36.97
2022-09-12T13:25:35.181Z,36.75
2022-09-12T13:28:37.218Z,36.32
2022-09-12T13:31:43.147Z,35.81
2022-09-12T13:34:51.675Z,35.19
2022-09-12T13:38:07.385Z,35.01
2022-09-12T13:41:12.277Z,35.10
2022-09-12T13:44:18.061Z,35.54
2022-09-12T13:47:32.471Z,36.18
2022-09-12T13:50:41.216Z,36.59
2022-09-12T13:53:44.737Z,36.96
2022-09-12T13:56:48.525Z,37.00
2022-09-12T13:59:54.991Z,37.25
2022-09-12T14:03:15.756Z,36.71
2022-09-12T14:06:18.995Z,35.97
2022-09-12T14:09:24.941Z,35.51
2022-09-12T14:12:34.655Z,34.93
2022-09-12T14:15:37.603Z,33.80
2022-09-12T14:18:40.203Z,33.67
2022-09-12T14:21:42.328Z,33.47
2022-09-12T14:24:51.557Z,33.63
2022-09-12T14:27:55.125Z,33.29
2022-09-12T14:31:02.168Z,33.69
2022-09-12T14:34:17.701Z,33.84
2022-09-12T14:37:20.091Z,33.32
2022-09-12T14:40:23.630Z,33.71
2022-09-12T14:43:30.671Z,33.74
2022-09-12T14:46:32.703Z,33.81
2022-09-12T14:49:36.658Z,33.80
2022-09-12T14:52:40.120Z,33.94
2022-09-12T14:55:44.703Z,34.09
2022-09-12T14:58:46.699Z,34.41
2022-09-12T15:01:49.005Z,34.31
2022-09-12T15:04:52.881Z,34.26
2022-09-12T15:07:57.114Z,34.47
2022-09-12T15:10:59.561Z,34.77
2022-09-12T15:14:14.427Z,34.85
2022-09-12T15:17:16.662Z,35.09
2022-09-12T15:20:18.946Z,35.13
2022-09-12T15:23:27.166Z,35.64
2022-09-12T15:26:31.075Z,35.68
2022-09-12T15:29:33.043Z,35.95
2022-09-12T15:32:35.293Z,36.14
2022-09-12T15:35:37.525Z,36.26
2022-09-12T15:38:39.806Z,36.50
2022-09-12T15:41:41.941Z,36.63
2022-09-12T15:44:44.207Z,36.75
2022-09-12T15:47:46.576Z,36.91
2022-09-12T15:50:48.952Z,37.02
2022-09-12T15:53:51.591Z,36.99
2022-09-12T15:56:54.056Z,37.05
2022-09-12T15:59:56.147Z,37.14
2022-09-12T16:02:58.521Z,37.19
2022-09-12T16:06:02.064Z,37.41
2022-09-12T16:09:04.144Z,37.70
2022-09-12T16:12:06.778Z,37.91
2022-09-12T16:15:11.870Z,38.07
2022-09-12T16:18:14.311Z,38.19
2022-09-12T16:21:16.307Z,38.43
2022-09-12T16:24:18.652Z,38.65
2022-09-12T16:27:20.619Z,38.80
2022-09-12T16:30:22.909Z,38.93
2022-09-12T16:33:25.952Z,39.04
2022-09-12T16:36:28.381Z,39.28
2022-09-12T16:39:30.410Z,39.48
2022-09-12T16:42:32.713Z,39.73
2022-09-12T16:45:34.683Z,39.78
2022-09-12T16:48:37.978Z,39.95
2022-09-12T16:51:43.856Z,40.15
2022-09-12T16:54:46.661Z,40.28
2022-09-12T16:57:49.453Z,40.37
2022-09-12T17:01:02.031Z,40.57
2022-09-12T17:04:04.411Z,40.68
2022-09-12T17:07:06.807Z,40.89
2022-09-12T17:10:09.101Z,41.07
2022-09-12T17:13:11.700Z,41.32
2022-09-12T17:16:14.624Z,41.55
2022-09-12T17:19:19.057Z,41.60
2022-09-12T17:22:21.081Z,41.85
2022-09-12T17:25:23.356Z,42.01
2022-09-12T17:28:25.505Z,42.15
2022-09-12T17:31:28.134Z,41.96
2022-09-12T17:34:30.270Z,42.15
2022-09-12T17:37:33.315Z,42.27
2022-09-12T17:40:58.209Z,42.26
2022-09-12T17:43:58.893Z,42.42
2022-09-12T17:47:00.931Z,42.38
2022-09-12T17:50:27.739Z,42.39
2022-09-12T17:53:25.962Z,42.44
2022-09-12T17:56:29.298Z,42.56
2022-09-12T17:59:31.374Z,42.63
2022-09-12T18:02:34.242Z,42.68
2022-09-12T18:05:36.569Z,43.05
2022-09-12T18:08:38.569Z,42.83
2022-09-12T18:11:41.111Z,42.93
2022-09-12T18:14:43.249Z,43.12
2022-09-12T18:17:45.684Z,43.08
2022-09-12T18:20:51.529Z,43.01
2022-09-12T18:23:55.055Z,43.25
2022-09-12T18:26:57.115Z,43.34
2022-09-12T18:30:20.177Z,43.39
2022-09-12T18:33:24.079Z,43.44
2022-09-12T18:36:26.985Z,43.32
2022-09-12T18:39:29.002Z,43.80
2022-09-12T18:42:31.324Z,43.70
2022-09-12T18:45:34.015Z,43.91
2022-09-12T18:48:36.697Z,44.03
2022-09-12T18:51:40.209Z,43.97
2022-09-12T18:54:42.680Z,44.24
2022-09-12T18:57:44.808Z,44.17
2022-09-12T19:00:49.164Z,44.34
2022-09-12T19:03:52.368Z,44.44
2022-09-12T19:06:54.712Z,44.53
2022-09-12T19:09:56.757Z,44.68
2022-09-12T19:12:59.221Z,44.82
2022-09-12T19:16:01.639Z,45.07
2022-09-12T19:19:04.123Z,45.06
2022-09-12T19:22:06.263Z,45.18
2022-09-12T19:25:08.708Z,45.25
2022-09-12T19:28:10.760Z,45.21
2022-09-12T19:31:14.575Z,45.41
2022-09-12T19:34:17.211Z,45.52
2022-09-12T19:37:19.622Z,45.56
2022-09-12T19:40:21.676Z,45.56
2022-09-12T19:43:24.384Z,45.59
2022-09-12T19:46:27.080Z,45.53
2022-09-12T19:49:29.421Z,45.64
2022-09-12T19:52:31.422Z,45.79
2022-09-12T19:55:37.106Z,45.50
2022-09-12T19:58:40.458Z,45.51
2022-09-12T20:01:42.780Z,45.33
2022-09-12T20:04:45.425Z,45.22
2022-09-12T20:07:47.460Z,44.98
2022-09-12T20:10:52.801Z,44.89
2022-09-12T20:13:57.159Z,45.00
2022-09-12T20:16:59.457Z,44.83
2022-09-12T20:20:02.245Z,45.06
2022-09-12T20:23:05.379Z,45.04
2022-09-12T20:26:08.674Z,44.96
2022-09-12T20:29:11.197Z,45.05
2022-09-12T20:32:13.286Z,44.98
2022-09-12T20:35:15.941Z,45.40
2022-09-12T20:38:17.954Z,45.40
2022-09-12T20:41:20.763Z,45.39
2022-09-12T20:44:22.989Z,45.40
2022-09-12T20:47:25.252Z,45.54
2022-09-12T20:50:27.430Z,45.64
2022-09-12T20:53:34.703Z,45.70
2022-09-12T20:56:37.599Z,45.89
2022-09-12T20:59:42.506Z,45.96
2022-09-12T21:02:44.928Z,46.07
2022-09-12T21:05:47.287Z,46.34
2022-09-12T21:08:50.007Z,46.28
2022-09-12T21:11:52.368Z,46.22
2022-09-12T21:14:54.375Z,46.33
2022-09-12T21:17:56.655Z,46.50
2022-09-12T21:20:58.964Z,46.63
2022-09-12T21:24:02.799Z,46.76
2022-09-12T21:27:05.338Z,47.06
2022-09-12T21:30:08.664Z,47.03
2022-09-12T21:33:10.816Z,46.96
2022-09-12T21:36:13.090Z,47.03
2022-09-12T21:39:15.059Z,47.13
2022-09-12T21:42:17.342Z,47.37
2022-09-12T21:45:20.228Z,47.55
2022-09-12T21:48:22.557Z,47.48
2022-09-12T21:51:24.705Z,47.74
2022-09-12T21:54:27.174Z,47.97
2022-09-12T21:57:29.283Z,48.12
2022-09-12T22:00:31.640Z,48.17
2022-09-12T22:03:34.239Z,48.40
2022-09-12T22:06:36.515Z,48.59
2022-09-12T22:09:38.759Z,48.70
2022-09-12T22:12:45.334Z,48.99
2022-09-12T22:15:52.022Z,49.36
2022-09-12T22:18:54.352Z,49.54
2022-09-12T22:22:15.402Z,49.66
2022-09-12T22:25:17.397Z,49.96
2022-09-12T22:28:20.790Z,50.15
2022-09-12T22:31:23.189Z,49.99
2022-09-12T22:34:25.962Z,50.16
2022-09-12T22:37:27.950Z,50.37
2022-09-12T22:40:30.332Z,50.47
2022-09-12T22:43:33.474Z,50.62
2022-09-12T23:02:17.255Z,50.85
2022-09-12T23:05:19.579Z,51.25
2022-09-12T23:08:21.570Z,51.34
2022-09-12T23:11:23.882Z,51.50
2022-09-12T23:14:26.093Z,51.77
2022-09-12T23:17:28.359Z,51.92
2022-09-12T23:20:30.596Z,52.19
2022-09-12T23:23:33.089Z,52.35
2022-09-12T23:26:35.131Z,52.40
2022-09-12T23:29:37.387Z,52.60
2022-09-12T23:32:39.437Z,52.83
2022-09-12T23:35:41.711Z,52.72
2022-09-12T23:38:44.463Z,52.73
2022-09-12T23:41:46.750Z,52.86
2022-09-12T23:44:48.712Z,52.93
2022-09-12T23:47:50.966Z,52.97
2022-09-12T23:50:53.012Z,53.17
2022-09-12T23:53:55.253Z,53.42
2022-09-12T23:56:57.275Z,53.46
2022-09-12T23:59:59.515Z,53.71
